Thunder radar more information blitzortung!


Radar de pluja more information rain snow radar


Visita la nostra xarxa de llocs de meteo:

Template documentation
and downloads

And another site



No particular awareness of the weather is required.    There are no Weather-warnings

Pagina Historial Weather Underground text

Diari Resum Juliol 21, 2017 Unitats:  Imperial    Mètric   Tant
« Previous Dia
SegĂźent Dia »
Diari Setmana Mensual Anual Personalitzada
  Maxima: Minima: Media:
Temperatura: 83.1 °F 67.5 °F 75.4 °F
Punt de rosada: 65.3 °F 59.4 °F 62.6 °F
Humitat: 86 % 51 % 65 %
Wind Speed: 9.2 mph 0 mph 2.4 mph
RĂ fegues de vent: 9.2 mph - -
Vent:- - SSE
Pression baro: 29.9 in 29.7 in -
Precipitacions: 0.04 in    
Historical Graphs
 
 
Dades de taula per Juliol 21, 2017
Temps Temperatura Punt de rosada Pression baro Vent Wind Speed RĂ fegues de vent Humitat Rainfall Rate (Hourly)
00:00 73.8 °F 60.8 °F 29.8 in ENE 1.4 mph 1.4 mph 64 % 0 in
00:05 69.4 °F 59.5 °F 29.8 in WNW 1 mph 2 mph 71 % 0 in
00:15 69.4 °F 60.1 °F 29.8 in Calm     72 % 0 in
00:25 69.3 °F 59.7 °F 29.8 in WSW 1 mph 2 mph 72 % 0 in
00:35 69.1 °F 59.7 °F 29.8 in West 1 mph 2 mph 72 % 0 in
00:45 68.7 °F 59.4 °F 29.8 in West 1 mph 1 mph 72 % 0 in
00:55 68.7 °F 59.7 °F 29.8 in Calm   2 mph 73 % 0 in
01:05 68.7 °F 59.7 °F 29.8 in Calm     73 % 0 in
01:15 69.1 °F 60.1 °F 29.8 in WSW 1 mph 1 mph 73 % 0 in
01:25 69.1 °F 60.1 °F 29.8 in West 1 mph 2 mph 73 % 0 in
01:35 69.1 °F 60.1 °F 29.8 in Calm   2 mph 73 % 0 in
01:45 68.9 °F 59.9 °F 29.8 in Calm     73 % 0 in
01:55 68.7 °F 59.7 °F 29.8 in Calm   1 mph 73 % 0 in
02:05 68.7 °F 59.7 °F 29.8 in NE 1 mph 2 mph 73 % 0 in
02:15 68.9 °F 59.9 °F 29.8 in Calm   3 mph 73 % 0 in
02:25 68.7 °F 59.4 °F 29.8 in NE 2 mph 2 mph 72 % 0 in
02:35 68.7 °F 59.7 °F 29.8 in West 1 mph 1 mph 73 % 0 in
02:45 69.1 °F 60.1 °F 29.8 in Calm   2 mph 73 % 0 in
02:55 70.2 °F 61.2 °F 29.8 in Calm   2 mph 73 % 0 in
03:05 70.3 °F 61 °F 29.8 in SW 1 mph 2 mph 72 % 0 in
03:15 71.1 °F 61.2 °F 29.8 in SW 1 mph 2 mph 71 % 0 in
03:25 72.5 °F 61.7 °F 29.8 in SW 1 mph 2 mph 69 % 0 in
03:35 73 °F 62.2 °F 29.8 in Calm   2 mph 69 % 0 in
03:45 73.4 °F 61.9 °F 29.8 in SSW 1 mph 2 mph 67 % 0 in
03:55 73.8 °F 62.1 °F 29.8 in SSW 1 mph 3 mph 67 % 0 in
04:05 74.5 °F 62.4 °F 29.8 in Calm   1 mph 66 % 0 in
04:15 75.4 °F 62.4 °F 29.8 in SW 2 mph 2 mph 64 % 0 in
04:25 75 °F 62.4 °F 29.8 in SSW 1 mph 3 mph 65 % 0 in
04:35 75.9 °F 62.4 °F 29.8 in SSE 3 mph 3 mph 63 % 0 in
04:45 76.5 °F 63 °F 29.8 in Calm   3 mph 63 % 0 in
04:55 75.7 °F 62.2 °F 29.8 in SW 1 mph 4 mph 63 % 0 in
05:05 75.9 °F 62.1 °F 29.8 in SW 1 mph 3 mph 62 % 0 in
05:15 76.3 °F 62.2 °F 29.8 in SW 1 mph 2 mph 62 % 0 in
05:25 77 °F 62.1 °F 29.8 in SW 1 mph 4 mph 60 % 0 in
05:35 78.8 °F 63.3 °F 29.8 in WSW 2 mph 3 mph 59 % 0 in
10:35 78.8 °F 63.3 °F 29.8 in NNE 6.2 mph 6.2 mph 59 % 0 in
10:40 79.3 °F 63.3 °F 29.8 in North 2.3 mph 2.3 mph 58 % 0 in
10:45 79.2 °F 63.1 °F 29.8 in NNW 3.5 mph 3.5 mph 58 % 0 in
10:51 78.6 °F 62.6 °F 29.8 in NE 3.6 mph 3.6 mph 58 % 0 in
10:56 78.4 °F 61.9 °F 29.8 in NNE 5.8 mph 5.8 mph 57 % 0 in
11:01 78.1 °F 61.2 °F 29.8 in ENE 5.8 mph 5.8 mph 56 % 0 in
11:04 78.3 °F 61.9 °F 29.8 in ENE 4.6 mph 4.6 mph 57 % 0 in
11:09 78.3 °F 61.3 °F 29.8 in NNE 5.8 mph 5.8 mph 56 % 0 in
11:14 78.1 °F 61.2 °F 29.8 in NE 5.4 mph 5.4 mph 56 % 0 in
11:19 78.4 °F 61.9 °F 29.8 in NE 4.6 mph 4.6 mph 57 % 0 in
11:24 78.4 °F 61.3 °F 29.8 in NNE 6.9 mph 6.9 mph 56 % 0 in
11:29 78.8 °F 61.3 °F 29.8 in NNE 9.2 mph 9.2 mph 55 % 0 in
11:34 79.3 °F 61.9 °F 29.8 in NNE 5.6 mph 5.6 mph 55 % 0 in
11:39 79 °F 61 °F 29.8 in NNW 9.2 mph 9.2 mph 54 % 0 in
11:49 79.7 °F 61.5 °F 29.8 in ESE 4.3 mph 4.3 mph 54 % 0 in
11:54 79.7 °F 61.5 °F 29.8 in NNE 4.6 mph 4.6 mph 54 % 0 in
11:59 79.2 °F 60.6 °F 29.8 in NNE 7.6 mph 7.6 mph 53 % 0 in
12:04 78.3 °F 60.3 °F 29.8 in ENE 8.1 mph 8.1 mph 54 % 0 in
12:09 78.1 °F 60.1 °F 29.8 in East 6.9 mph 6.9 mph 54 % 0 in
12:14 77.9 °F 59.9 °F 29.8 in ENE 2.6 mph 2.6 mph 54 % 0 in
12:19 77.5 °F 60.1 °F 29.8 in NNE 4.9 mph 4.9 mph 55 % 0 in
12:25 76.5 °F 61.2 °F 29.8 in North 2 mph 7 mph 59 % 0 in
12:30 75.4 °F 61 °F 29.8 in NNW 2 mph 7 mph 61 % 0 in
12:35 73.9 °F 61 °F 29.8 in NE 4.6 mph 4.6 mph 64 % 0 in
12:40 72.9 °F 60.4 °F 29.8 in NNE 5 mph 7 mph 65 % 0 in
12:45 72.7 °F 60.6 °F 29.8 in NNW 2.2 mph 2.2 mph 66 % 0 in
12:50 72.3 °F 61.2 °F 29.8 in East 2.3 mph 2.3 mph 68 % 0 in
12:55 71.8 °F 60.6 °F 29.8 in NNE 1 mph 4 mph 68 % 0 in
13:00 71.6 °F 61 °F 29.8 in NNE 3 mph 5 mph 69 % 0 in
13:05 71.1 °F 61.2 °F 29.8 in NNE 1 mph 4 mph 71 % 0 in
13:10 71.1 °F 62.1 °F 29.8 in NNE 2 mph 3 mph 73 % 0 in
13:15 71.1 °F 62.1 °F 29.8 in ENE 2.3 mph 2.3 mph 73 % 0 in
13:20 70.9 °F 62.2 °F 29.8 in WNW 2.3 mph 2.3 mph 74 % 0 in
13:25 71.1 °F 62.8 °F 29.8 in West 2.3 mph 2.3 mph 75 % 0 in
13:26 71.1 °F 62.8 °F 29.8 in SW 2.3 mph 2.3 mph 75 % 0 in
13:31 71.2 °F 63.7 °F 29.8 in SSW 2.3 mph 2.3 mph 77 % 0 in
13:36 70.7 °F 63.1 °F 29.8 in SE 1.2 mph 1.2 mph 77 % 0 in
13:41 71.1 °F 63.5 °F 29.8 in East 2.3 mph 2.3 mph 77 % 0 in
13:46 71.1 °F 63.1 °F 29.8 in WSW 2.4 mph 2.4 mph 76 % 0.04 in
13:51 71.2 °F 64.4 °F 29.8 in SSE 1.2 mph   79 % 0.04 in
13:56 71.2 °F 64 °F 29.8 in NNE 1.6 mph   78 % 0.04 in
14:01 71.1 °F 63.5 °F 29.8 in NNE 1.2 mph   77 % 0.04 in
14:06 71.2 °F 63.3 °F 29.8 in NW 2.4 mph 2.4 mph 76 % 0.04 in
14:11 71.8 °F 64.2 °F 29.8 in East 3.5 mph 3.5 mph 77 % 0.04 in
14:16 71.6 °F 64 °F 29.8 in NNE 1.2 mph   77 % 0.04 in
14:21 71.8 °F 63.9 °F 29.8 in NNE 3.5 mph 3.5 mph 76 % 0.04 in
14:26 72.1 °F 64.2 °F 29.8 in NW 3.3 mph 3.3 mph 76 % 0.04 in
14:31 72.1 °F 63.9 °F 29.8 in South 3.5 mph 3.5 mph 75 % 0.04 in
14:36 72.5 °F 64.6 °F 29.8 in NE 2.3 mph 2.3 mph 76 % 0.04 in
14:41 72.5 °F 64 °F 29.8 in NNE 3.5 mph 3.5 mph 75 % 0.04 in
14:46 72.5 °F 64 °F 29.8 in ENE 3.5 mph 3.5 mph 75 % 0 in
14:51 72.7 °F 64.2 °F 29.8 in ENE 3.5 mph 3.5 mph 75 % 0 in
14:56 72.7 °F 64.2 °F 29.8 in NNE 3.6 mph 3.6 mph 75 % 0 in
15:02 73.2 °F 64.8 °F 29.8 in ENE 2.3 mph 2.3 mph 75 % 0 in
15:07 73.8 °F 64.9 °F 29.8 in NNE 2.4 mph 2.4 mph 74 % 0 in
15:12 73.8 °F 64.6 °F 29.8 in ENE 4.6 mph 4.6 mph 73 % 0 in
15:17 74.5 °F 64.9 °F 29.8 in ENE 4.6 mph 4.6 mph 72 % 0 in
15:22 75.4 °F 65.3 °F 29.8 in ESE 2.3 mph 2.3 mph 71 % 0 in
15:27 76.1 °F 65.1 °F 29.8 in NNE 3.5 mph 3.5 mph 69 % 0 in
15:32 75.7 °F 64.4 °F 29.8 in ENE 4.6 mph 4.6 mph 68 % 0 in
15:38 75.7 °F 64 °F 29.8 in NNE 3.5 mph 3.5 mph 67 % 0 in
15:43 75.9 °F 64.2 °F 29.8 in NNE 3.5 mph 3.5 mph 67 % 0 in
15:48 76.3 °F 64.6 °F 29.8 in NE 3.5 mph 3.5 mph 67 % 0 in
15:53 77 °F 64.2 °F 29.8 in ENE 3.5 mph 3.5 mph 65 % 0 in
15:58 77.7 °F 64.9 °F 29.8 in NNE 4.6 mph 4.6 mph 65 % 0 in
16:03 78.1 °F 64.6 °F 29.8 in ENE 3.5 mph 3.5 mph 63 % 0 in
16:08 78.1 °F 64.6 °F 29.8 in ENE 3.5 mph 3.5 mph 63 % 0 in
16:13 78.8 °F 64.8 °F 29.8 in North 2.3 mph 2.3 mph 62 % 0 in
16:19 78.8 °F 64.2 °F 29.8 in NE 2.3 mph 2.3 mph 61 % 0 in
16:24 79.2 °F 63.7 °F 29.8 in NE 3.5 mph 3.5 mph 59 % 0 in
16:29 80.1 °F 63.5 °F 29.8 in ESE 4.9 mph   57 % 0 in
16:34 80.4 °F 64.2 °F 29.8 in SW 4.6 mph 4.6 mph 58 % 0 in
16:39 80.6 °F 63 °F 29.8 in NNW 2.6 mph 2.6 mph 55 % 0 in
16:45 80.1 °F 63 °F 29.8 in NE 2.3 mph 2.3 mph 56 % 0 in
16:50 80.2 °F 63.1 °F 29.8 in NW 2.3 mph   56 % 0 in
16:55 80.6 °F 63 °F 29.8 in NE 1 mph 2 mph 55 % 0 in
17:00 80.8 °F 63.1 °F 29.8 in West 2 mph 3 mph 55 % 0 in
17:05 81 °F 63.3 °F 29.8 in WSW 2 mph 4 mph 55 % 0 in
17:10 81.1 °F 63.3 °F 29.8 in SW 2 mph 3 mph 55 % 0 in
17:15 81.1 °F 63 °F 29.8 in Calm   3 mph 54 % 0 in
17:20 80.4 °F 62.2 °F 29.8 in ESE 4.6 mph 4.6 mph 54 % 0 in
17:25 80.4 °F 62.8 °F 29.8 in NNE 2 mph 3 mph 55 % 0 in
17:30 80.1 °F 61.9 °F 29.8 in ENE 2 mph 5 mph 54 % 0 in
17:35 80.1 °F 61.9 °F 29.8 in NE 2 mph 4 mph 54 % 0 in
17:40 79.9 °F 61.9 °F 29.8 in NNE 1 mph 4 mph 54 % 0 in
17:45 80.1 °F 61.9 °F 29.8 in NNE 2 mph 5 mph 54 % 0 in
17:50 80.1 °F 62.1 °F 29.8 in NE 1 mph 5 mph 54 % 0 in
17:55 80.2 °F 62.1 °F 29.8 in NNE 1 mph 4 mph 54 % 0 in
18:00 80.2 °F 62.6 °F 29.8 in North 2 mph 5 mph 55 % 0 in
18:05 80.4 °F 62.2 °F 29.8 in NE 1 mph 3 mph 54 % 0 in
18:10 80.6 °F 63 °F 29.8 in NNW 2 mph 4 mph 55 % 0 in
18:15 80.8 °F 62.1 °F 29.8 in North 1 mph 4 mph 53 % 0 in
18:20 82.4 °F 63.5 °F 29.8 in WNW 2.3 mph 2.3 mph 53 % 0 in
18:26 82.8 °F 63.9 °F 29.8 in South 4.6 mph 4.6 mph 53 % 0 in
18:31 82.2 °F 62.8 °F 29.8 in South 2.4 mph 2.4 mph 52 % 0 in
18:36 81.7 °F 63 °F 29.8 in West 2.3 mph 2.3 mph 53 % 0 in
18:41 82.2 °F 63.3 °F 29.8 in South 2.2 mph 2.2 mph 53 % 0 in
18:42 82.4 °F 63.5 °F 29.8 in West 2.3 mph 2.3 mph 53 % 0 in
18:47 82.8 °F 63.3 °F 29.8 in WSW 2.4 mph 2.4 mph 52 % 0 in
18:53 82.9 °F 63.5 °F 29.8 in SE 3.5 mph 3.5 mph 52 % 0 in
18:58 82.8 °F 62.8 °F 29.8 in ENE 2.3 mph 2.3 mph 51 % 0 in
19:03 83.1 °F 63.7 °F 29.8 in NNW 2.3 mph 2.3 mph 52 % 0 in
19:08 82.6 °F 63.1 °F 29.8 in NW 2.3 mph 2.3 mph 52 % 0 in
19:10 72.3 °F 63.7 °F 29.8 in WSW 1 mph 2 mph 74 % 0 in
19:13 82.4 °F 63 °F 29.8 in SW 1.6 mph 1.6 mph 52 % 0 in
19:18 82.8 °F 63.3 °F 29.8 in WSW 2.3 mph   52 % 0 in
19:20 72.1 °F 63.3 °F 29.8 in West 1 mph 2 mph 74 % 0 in
19:23 82.6 °F 63.1 °F 29.7 in SW 4.6 mph 4.6 mph 52 % 0 in
19:29 82.4 °F 63 °F 29.7 in South 3.5 mph 3.5 mph 52 % 0 in
19:30 72.1 °F 63.9 °F 29.8 in Calm   3 mph 75 % 0 in
19:34 82.2 °F 62.8 °F 29.7 in WSW 2.3 mph 2.3 mph 52 % 0 in
19:39 81.7 °F 62.2 °F 29.8 in NNE 1.2 mph   52 % 0 in
19:40 72 °F 63.7 °F 29.8 in West 1 mph 2 mph 75 % 0 in
19:44 81.7 °F 62.2 °F 29.8 in WSW 3.5 mph 3.5 mph 52 % 0 in
19:50 81.9 °F 63.1 °F 29.8 in SW 3.5 mph 3.5 mph 53 % 0 in
19:55 81.7 °F 62.4 °F 29.8 in SW 3 mph 5 mph 52 % 0 in
20:00 81.3 °F 62.8 °F 29.8 in SW 1 mph 5 mph 53 % 0 in
20:05 81.5 °F 62.8 °F 29.8 in SW 2 mph 4 mph 53 % 0 in
20:10 81.3 °F 62.6 °F 29.8 in SW 3 mph 4 mph 53 % 0 in
20:15 81 °F 62.8 °F 29.8 in SW 2 mph 3 mph 54 % 0 in
20:20 80.8 °F 62.6 °F 29.8 in SW 3.5 mph 3.5 mph 54 % 0 in
20:25 80.6 °F 62.4 °F 29.8 in WSW 3.5 mph 3.5 mph 54 % 0 in
20:30 80.4 °F 63.3 °F 29.8 in WSW 2.3 mph 2.4 mph 56 % 0 in
20:35 80.1 °F 63 °F 29.8 in WSW 3.5 mph 3.5 mph 56 % 0 in
20:40 79.7 °F 63.1 °F 29.8 in SW 4.6 mph 4.6 mph 57 % 0 in
20:45 79.3 °F 62.8 °F 29.8 in SSW 3.5 mph 3.5 mph 57 % 0 in
20:50 70.9 °F 63.7 °F 29.8 in West 1 mph 1 mph 78 % 0 in
20:52 79 °F 63 °F 29.8 in SW 2.3 mph 2.3 mph 58 % 0 in
20:57 78.8 °F 62.8 °F 29.8 in West 3.5 mph 3.5 mph 58 % 0 in
21:00 70.7 °F 63.9 °F 29.8 in Calm     79 % 0 in
21:02 78.6 °F 63.1 °F 29.8 in SW 2.3 mph 2.3 mph 59 % 0 in
21:07 78.4 °F 63 °F 29.8 in SW 2.3 mph 2.4 mph 59 % 0 in
21:10 70.5 °F 64 °F 29.8 in Calm     80 % 0 in
21:12 78.1 °F 63.1 °F 29.8 in SW 3.5 mph 3.5 mph 60 % 0 in
21:17 77.7 °F 62.8 °F 29.8 in SW 2.4 mph 2.4 mph 60 % 0 in
21:20 70.3 °F 63.9 °F 29.8 in WNW 1 mph   80 % 0 in
21:22 77.5 °F 62.6 °F 29.8 in SW 3.5 mph 3.5 mph 60 % 0 in
21:27 77.4 °F 63 °F 29.8 in SW 2.3 mph 2.3 mph 61 % 0 in
21:30 70.2 °F 63.7 °F 29.8 in NW 1 mph 1 mph 80 % 0 in
21:32 77.2 °F 62.8 °F 29.8 in SW 3.5 mph 3.5 mph 61 % 0 in
21:37 76.8 °F 63.3 °F 29.8 in SW 2.6 mph 2.6 mph 63 % 0 in
21:40 70 °F 63.5 °F 29.9 in NW 1 mph 1 mph 80 % 0 in
21:42 76.6 °F 63.1 °F 29.8 in SW 3.5 mph 3.5 mph 63 % 0 in
21:47 76.5 °F 63.3 °F 29.8 in SSW 4.6 mph 4.6 mph 64 % 0 in
21:50 69.8 °F 63.3 °F 29.9 in Calm   2 mph 80 % 0 in
21:52 76.3 °F 63.1 °F 29.8 in SW 4.6 mph 4.6 mph 64 % 0 in
21:57 76.1 °F 63.5 °F 29.8 in SW 3.5 mph 3.5 mph 65 % 0 in
22:00 69.6 °F 63.5 °F 29.9 in Calm   1 mph 81 % 0 in
22:02 75.9 °F 63.3 °F 29.8 in SSW 5.8 mph 5.8 mph 65 % 0 in
22:07 75.6 °F 63.3 °F 29.8 in SSW 5.6 mph 5.6 mph 66 % 0 in
22:10 69.3 °F 63.1 °F 29.8 in West 1 mph 1 mph 81 % 0 in
22:12 75.2 °F 63.1 °F 29.8 in WSW 4.6 mph 4.6 mph 66 % 0 in
22:17 75 °F 63.7 °F 29.8 in SSW 3.6 mph 3.6 mph 68 % 0 in
22:20 69.1 °F 63.3 °F 29.8 in Calm   2 mph 82 % 0 in
22:22 74.8 °F 63.7 °F 29.8 in South 4.6 mph 4.6 mph 68 % 0 in
22:27 74.7 °F 63.3 °F 29.8 in West 3.5 mph 3.5 mph 68 % 0 in
22:30 69.1 °F 63.7 °F 29.9 in Calm     83 % 0 in
22:32 74.5 °F 63.7 °F 29.8 in SW 2.4 mph 2.4 mph 69 % 0 in
22:37 74.3 °F 63.5 °F 29.8 in WSW 2.3 mph 2.3 mph 69 % 0 in
22:40 69.1 °F 63.7 °F 29.8 in West 1 mph 1 mph 83 % 0 in
22:42 74.3 °F 63.5 °F 29.8 in WNW 2.6 mph 2.6 mph 69 % 0 in
22:47 74.1 °F 63.7 °F 29.8 in WSW 2.3 mph 2.3 mph 70 % 0 in
22:50 68.5 °F 63.1 °F 29.8 in Calm   2 mph 83 % 0 in
22:53 73.9 °F 63.5 °F 29.8 in WSW 2.4 mph 2.4 mph 70 % 0 in
22:58 73.8 °F 63.3 °F 29.8 in WSW 2.3 mph 2.3 mph 70 % 0 in
23:00 68.4 °F 63 °F 29.8 in Calm   1 mph 83 % 0 in
23:03 73.6 °F 63.1 °F 29.8 in WSW 2.4 mph 2.4 mph 70 % 0 in
23:08 73.4 °F 63 °F 29.8 in SW 3.5 mph 3.5 mph 70 % 0 in
23:10 68.2 °F 63.1 °F 29.8 in Calm     84 % 0 in
23:13 73.4 °F 63.3 °F 29.8 in SW 2.4 mph 2.9 mph 71 % 0 in
23:18 73 °F 63.5 °F 29.8 in SW 2.3 mph   72 % 0 in
23:20 68 °F 63 °F 29.8 in WNW 1 mph 1 mph 84 % 0 in
23:23 73 °F 63.1 °F 29.8 in SW 2.3 mph 2.3 mph 71 % 0 in
23:28 72.9 °F 63.3 °F 29.8 in WSW 2.6 mph 2.6 mph 72 % 0 in
23:30 67.6 °F 63 °F 29.8 in West 1 mph 2 mph 85 % 0 in
23:33 72.9 °F 63.3 °F 29.8 in Calm     72 % 0 in
23:38 72.7 °F 63.5 °F 29.8 in WSW 1.2 mph   73 % 0 in
23:40 67.5 °F 63.1 °F 29.8 in Calm     86 % 0 in
23:43 72.5 °F 63.3 °F 29.8 in NW 2.2 mph 2.2 mph 73 % 0 in
23:48 72.5 °F 63.3 °F 29.8 in WNW 1.2 mph 1.2 mph 73 % 0 in
23:50 67.5 °F 63.1 °F 29.8 in Calm     86 % 0 in
23:53 72.5 °F 63.3 °F 29.8 in WSW 2.3 mph 2.3 mph 73 % 0 in
23:58 72.3 °F 63.7 °F 29.8 in SW 2.3 mph 2.3 mph 74 % 0 in
Meteo Sesrovires
Elogis d' Weather Underground - 3.75 mb

Guio original per  Jim McMurry - jmcmurry@mwt.net Adaptat per a la plantilla per  Wim van der Kuil - Leuven-Template.eu

Trobareu la nostra informacio del temps tambe a:

Weather Underground

AWEKAS